createdAt,value
2022-08-26T00:02:12.795Z,8.20
2022-08-26T00:04:41.279Z,8.40
2022-08-26T00:07:09.349Z,8.20
2022-08-26T00:09:40.097Z,8.70
2022-08-26T00:12:12.377Z,8.80
2022-08-26T00:14:41.256Z,8.60
2022-08-26T00:17:10.379Z,9.30
2022-08-26T00:19:38.973Z,8.40
2022-08-26T00:22:07.045Z,8.70
2022-08-26T00:24:34.981Z,8.30
2022-08-26T00:27:04.465Z,8.70
2022-08-26T00:29:37.664Z,8.20
2022-08-26T00:32:06.675Z,8.60
2022-08-26T00:34:36.174Z,8.00
2022-08-26T00:37:08.972Z,8.30
2022-08-26T00:39:37.893Z,8.60
2022-08-26T00:42:05.978Z,7.80
2022-08-26T00:44:33.839Z,8.80
2022-08-26T00:47:08.108Z,8.50
2022-08-26T00:49:44.496Z,7.90
2022-08-26T00:52:20.171Z,8.20
2022-08-26T00:55:38.194Z,8.60
2022-08-26T00:58:08.549Z,8.10
2022-08-26T01:00:36.456Z,8.00
2022-08-26T01:03:05.223Z,8.70
2022-08-26T01:05:33.384Z,8.70
2022-08-26T01:08:01.853Z,8.40
2022-08-26T01:10:31.962Z,8.40
2022-08-26T01:13:07.118Z,9.10
2022-08-26T01:15:43.621Z,8.70
2022-08-26T01:18:14.883Z,8.70
2022-08-26T01:21:36.561Z,9.10
2022-08-26T01:24:11.583Z,8.80
2022-08-26T01:26:44.840Z,9.30
2022-08-26T01:29:20.100Z,8.40
2022-08-26T01:31:56.750Z,8.70
2022-08-26T01:34:31.156Z,8.80
2022-08-26T01:37:15.592Z,8.30
2022-08-26T01:39:51.691Z,8.40
2022-08-26T01:42:23.939Z,9.00
2022-08-26T01:45:12.842Z,8.70
2022-08-26T01:47:43.384Z,8.90
2022-08-26T01:50:28.137Z,8.70
2022-08-26T01:53:07.598Z,8.30
2022-08-26T01:55:43.084Z,8.20
2022-08-26T01:58:21.038Z,8.90
2022-08-26T02:00:50.492Z,8.70
2022-08-26T02:03:22.399Z,8.20
2022-08-26T02:06:04.122Z,8.00
2022-08-26T02:08:37.328Z,9.10
2022-08-26T02:11:05.696Z,8.70
2022-08-26T02:13:39.984Z,8.80
2022-08-26T02:16:11.232Z,8.40
2022-08-26T02:18:43.666Z,8.30
2022-08-26T02:21:13.753Z,8.50
2022-08-26T02:23:41.761Z,9.00
2022-08-26T02:26:19.305Z,8.50
2022-08-26T02:29:02.389Z,8.50
2022-08-26T02:31:30.683Z,8.30
2022-08-26T02:34:21.121Z,8.90
2022-08-26T02:36:49.790Z,8.80
2022-08-26T02:39:22.361Z,9.20
2022-08-26T02:41:50.627Z,9.50
2022-08-26T02:44:19.593Z,9.20
2022-08-26T02:46:47.641Z,9.00
2022-08-26T02:49:17.167Z,9.90
2022-08-26T02:51:46.885Z,9.80
2022-08-26T02:54:15.599Z,10.00
2022-08-26T02:56:44.967Z,9.90
2022-08-26T02:59:13.166Z,10.50
2022-08-26T03:01:41.617Z,9.80
2022-08-26T03:04:12.532Z,9.60
2022-08-26T03:06:40.680Z,9.90
2022-08-26T03:09:18.489Z,10.00
2022-08-26T03:11:47.658Z,9.90
2022-08-26T03:14:15.567Z,10.00
2022-08-26T03:16:43.818Z,10.00
2022-08-26T03:19:17.637Z,10.60
2022-08-26T03:21:47.241Z,10.90
2022-08-26T03:24:17.656Z,10.70
2022-08-26T03:26:52.963Z,10.60
2022-08-26T03:29:41.917Z,10.50
2022-08-26T03:32:10.648Z,11.50
2022-08-26T03:34:38.967Z,11.30
2022-08-26T03:37:09.401Z,10.60
2022-08-26T03:39:37.640Z,11.20
2022-08-26T03:42:06.431Z,10.80
2022-08-26T03:44:34.957Z,10.80
2022-08-26T03:47:02.883Z,10.80
2022-08-26T03:49:36.701Z,11.40
2022-08-26T03:52:05.665Z,12.80
2022-08-26T03:54:33.972Z,12.60
2022-08-26T03:57:04.216Z,11.90
2022-08-26T03:59:33.301Z,11.30
2022-08-26T04:02:01.536Z,11.90
2022-08-26T04:04:30.256Z,11.30
2022-08-26T04:07:00.883Z,12.10
2022-08-26T04:09:28.935Z,11.10
2022-08-26T04:11:59.005Z,11.80
2022-08-26T04:14:28.571Z,10.70
2022-08-26T04:16:57.197Z,11.10
2022-08-26T04:19:26.728Z,11.90
2022-08-26T04:21:55.013Z,11.20
2022-08-26T04:24:25.757Z,11.70
2022-08-26T04:26:54.082Z,11.00
2022-08-26T04:29:26.336Z,11.20
2022-08-26T04:31:56.341Z,12.50
2022-08-26T04:34:28.444Z,12.20
2022-08-26T04:36:58.868Z,12.40
2022-08-26T04:39:28.220Z,12.50
2022-08-26T04:41:57.689Z,12.90
2022-08-26T04:44:29.222Z,12.80
2022-08-26T04:46:58.862Z,12.20
2022-08-26T04:49:27.492Z,12.40
2022-08-26T04:51:55.549Z,13.00
2022-08-26T04:54:25.091Z,13.80
2022-08-26T04:56:53.237Z,14.70
2022-08-26T04:59:21.648Z,12.50
2022-08-26T05:01:56.479Z,12.90
2022-08-26T05:04:24.450Z,13.10
2022-08-26T05:06:56.670Z,12.20
2022-08-26T05:09:27.388Z,12.30
2022-08-26T05:11:55.414Z,12.30
2022-08-26T05:14:23.631Z,13.00
2022-08-26T05:16:52.710Z,11.20
2022-08-26T05:19:21.163Z,11.60
2022-08-26T05:21:50.664Z,11.70
2022-08-26T05:24:18.563Z,11.90
2022-08-26T05:26:48.078Z,11.20
2022-08-26T05:29:17.165Z,12.40
2022-08-26T05:31:45.165Z,12.30
2022-08-26T05:34:14.648Z,11.50
2022-08-26T05:36:43.507Z,13.50
2022-08-26T05:39:11.407Z,12.90
2022-08-26T05:41:43.013Z,12.90
2022-08-26T05:44:15.738Z,13.50
2022-08-26T05:46:46.201Z,14.00
2022-08-26T05:49:16.276Z,13.30
2022-08-26T05:51:47.696Z,14.00
2022-08-26T05:54:22.357Z,14.60
2022-08-26T05:56:52.034Z,14.10
2022-08-26T05:59:24.057Z,13.10
2022-08-26T06:01:54.959Z,14.10
2022-08-26T06:04:28.614Z,14.30
2022-08-26T06:06:59.203Z,14.90
2022-08-26T06:09:27.433Z,14.70
2022-08-26T06:11:59.027Z,13.50
2022-08-26T06:14:27.136Z,14.40
2022-08-26T06:16:55.400Z,15.20
2022-08-26T06:19:32.889Z,15.10
2022-08-26T06:22:23.486Z,15.80
2022-08-26T06:25:24.838Z,14.30
2022-08-26T06:27:54.380Z,14.70
2022-08-26T06:30:22.288Z,11.20
2022-08-26T06:32:50.501Z,11.10
2022-08-26T06:35:21.406Z,11.10
2022-08-26T06:37:49.338Z,9.90
2022-08-26T06:40:17.495Z,10.30
2022-08-26T06:42:45.373Z,9.20
2022-08-26T06:45:14.002Z,8.90
2022-08-26T06:47:42.000Z,9.90
2022-08-26T06:50:10.448Z,10.10
2022-08-26T06:52:42.659Z,10.70
2022-08-26T06:55:10.981Z,10.50
2022-08-26T06:57:41.258Z,10.80
2022-08-26T07:00:11.293Z,12.00
2022-08-26T07:02:40.485Z,13.50
2022-08-26T07:05:15.091Z,12.80
2022-08-26T07:07:48.243Z,11.50
2022-08-26T07:10:16.139Z,13.40
2022-08-26T07:12:47.195Z,12.20
2022-08-26T07:15:16.180Z,13.30
2022-08-26T07:17:44.387Z,11.40
2022-08-26T07:20:12.992Z,12.40
2022-08-26T07:22:40.962Z,11.70
2022-08-26T07:25:10.723Z,13.60
2022-08-26T07:27:39.439Z,11.90
2022-08-26T07:30:08.368Z,12.00
2022-08-26T07:32:37.634Z,11.00
2022-08-26T07:35:06.484Z,11.20
2022-08-26T07:37:35.621Z,12.30
2022-08-26T07:40:09.119Z,13.80
2022-08-26T07:42:37.416Z,11.70
2022-08-26T07:45:06.433Z,12.00
2022-08-26T07:47:34.868Z,13.70
2022-08-26T07:50:03.426Z,12.80
2022-08-26T07:52:31.541Z,13.50
2022-08-26T07:55:04.074Z,12.20
2022-08-26T07:57:33.000Z,12.20
2022-08-26T08:00:10.375Z,13.00
2022-08-26T08:02:59.168Z,12.00
2022-08-26T08:05:33.563Z,11.90
2022-08-26T08:08:26.503Z,12.40
2022-08-26T08:11:09.986Z,11.50
2022-08-26T08:13:46.644Z,11.70
2022-08-26T08:16:20.757Z,10.50
2022-08-26T08:19:06.786Z,9.20
2022-08-26T08:21:50.559Z,9.20
2022-08-26T08:24:25.230Z,7.60
2022-08-26T08:27:06.365Z,7.10
2022-08-26T08:29:54.893Z,7.40
2022-08-26T08:32:33.848Z,11.20
2022-08-26T08:35:11.703Z,10.30
2022-08-26T08:37:58.114Z,14.40
2022-08-26T08:40:48.168Z,10.90
2022-08-26T08:43:59.719Z,7.30
2022-08-26T08:46:36.025Z,14.10
2022-08-26T08:49:19.615Z,7.70
2022-08-26T08:52:21.121Z,10.70
2022-08-26T08:55:18.284Z,8.40
2022-08-26T08:58:08.362Z,7.30
2022-08-26T09:01:10.973Z,9.40
2022-08-26T09:04:02.181Z,9.40
2022-08-26T09:06:34.564Z,8.30
2022-08-26T09:09:08.668Z,7.10
2022-08-26T09:11:37.168Z,8.00
2022-08-26T09:14:05.463Z,6.90
2022-08-26T09:16:52.151Z,7.00
2022-08-26T09:19:40.398Z,7.50
2022-08-26T09:22:09.763Z,7.20
2022-08-26T09:24:41.761Z,6.90
2022-08-26T09:27:40.437Z,7.70
2022-08-26T09:30:15.793Z,6.50
2022-08-26T09:32:55.993Z,6.10
2022-08-26T09:35:35.937Z,5.10
2022-08-26T09:38:33.068Z,5.40
2022-08-26T09:41:08.917Z,6.60
2022-08-26T09:43:37.184Z,5.70
2022-08-26T09:46:28.290Z,6.30
2022-08-26T09:49:41.413Z,5.60
2022-08-26T09:52:21.631Z,5.40
2022-08-26T09:55:24.895Z,5.80
2022-08-26T09:58:02.252Z,5.20
2022-08-26T10:00:42.484Z,5.80
2022-08-26T10:03:26.338Z,5.30
2022-08-26T10:06:21.627Z,5.10
2022-08-26T10:08:54.963Z,5.50
2022-08-26T10:11:37.472Z,5.40
2022-08-26T10:14:20.230Z,5.50
2022-08-26T10:17:15.115Z,5.30
2022-08-26T10:20:23.562Z,5.20
2022-08-26T10:23:15.977Z,5.60
2022-08-26T10:25:59.017Z,5.00
2022-08-26T10:28:49.934Z,5.50
2022-08-26T10:31:28.985Z,5.30
2022-08-26T10:34:00.035Z,5.80
2022-08-26T10:37:14.271Z,5.30
2022-08-26T10:39:46.061Z,5.60
2022-08-26T10:42:28.848Z,6.10
2022-08-26T10:45:15.904Z,6.10
2022-08-26T10:47:57.555Z,5.00
2022-08-26T10:50:35.512Z,5.20
2022-08-26T10:53:18.065Z,5.20
2022-08-26T10:56:02.799Z,4.70
2022-08-26T10:59:31.965Z,5.20
2022-08-26T11:02:33.386Z,5.20
2022-08-26T11:05:07.069Z,4.60
2022-08-26T11:07:52.800Z,4.60
2022-08-26T11:10:25.493Z,4.70
2022-08-26T11:13:09.272Z,4.80
2022-08-26T11:15:37.075Z,4.70
2022-08-26T11:18:12.263Z,5.00
2022-08-26T11:20:45.356Z,4.40
2022-08-26T11:23:14.099Z,5.00
2022-08-26T11:25:57.215Z,4.40
2022-08-26T11:28:49.695Z,5.00
2022-08-26T11:31:26.757Z,4.80
2022-08-26T11:34:02.647Z,4.60
2022-08-26T11:36:49.307Z,4.40
2022-08-26T11:39:24.572Z,5.30
2022-08-26T11:42:00.230Z,4.80
2022-08-26T11:44:40.693Z,4.70
2022-08-26T11:47:12.195Z,4.60
2022-08-26T11:49:41.886Z,4.90
2022-08-26T11:52:22.460Z,4.70
2022-08-26T11:55:14.542Z,3.50
2022-08-26T11:57:51.017Z,3.60
2022-08-26T12:00:33.850Z,3.30
2022-08-26T12:03:16.507Z,3.10
2022-08-26T12:05:52.548Z,2.60
2022-08-26T12:08:31.385Z,2.80
2022-08-26T12:11:08.777Z,2.90
2022-08-26T12:13:40.643Z,3.40
2022-08-26T12:16:10.664Z,4.00
2022-08-26T12:18:41.616Z,3.20
2022-08-26T12:21:27.165Z,3.00
2022-08-26T12:24:01.544Z,3.60
2022-08-26T12:26:34.873Z,3.30
2022-08-26T12:29:28.354Z,2.80
2022-08-26T12:32:17.947Z,3.00
2022-08-26T12:34:49.170Z,3.30
2022-08-26T12:37:20.452Z,3.10
2022-08-26T12:39:49.306Z,3.40
2022-08-26T12:42:17.104Z,3.30
2022-08-26T12:44:57.130Z,3.50
2022-08-26T12:47:43.112Z,3.10
2022-08-26T12:50:21.410Z,3.00
2022-08-26T12:53:22.420Z,3.20
2022-08-26T12:56:02.635Z,3.20
2022-08-26T12:58:35.419Z,3.20
2022-08-26T13:01:06.977Z,3.20
2022-08-26T13:03:34.974Z,3.40
2022-08-26T13:06:17.762Z,3.40
2022-08-26T13:08:55.825Z,2.90
2022-08-26T13:11:54.740Z,3.30
2022-08-26T13:14:24.986Z,3.20
2022-08-26T13:16:53.818Z,3.30
2022-08-26T13:19:29.880Z,3.70
2022-08-26T13:22:00.796Z,3.10
2022-08-26T13:24:39.827Z,3.00
2022-08-26T13:27:12.207Z,4.20
2022-08-26T13:29:41.642Z,3.80
2022-08-26T13:32:11.019Z,4.20
2022-08-26T13:34:39.442Z,3.90
2022-08-26T13:37:07.433Z,4.80
2022-08-26T13:39:35.263Z,4.90
2022-08-26T13:42:03.279Z,4.50
2022-08-26T13:44:31.310Z,4.40
2022-08-26T13:46:59.224Z,4.70
2022-08-26T13:49:27.509Z,4.50
2022-08-26T13:51:58.541Z,4.20
2022-08-26T13:54:26.674Z,4.80
2022-08-26T13:56:54.699Z,4.50
2022-08-26T13:59:22.495Z,4.80
2022-08-26T14:01:50.719Z,4.60
2022-08-26T14:04:26.932Z,5.00
2022-08-26T14:06:55.407Z,4.70
2022-08-26T14:09:23.396Z,4.80
2022-08-26T14:11:54.367Z,4.50
2022-08-26T14:14:57.243Z,3.90
2022-08-26T14:17:28.499Z,3.60
2022-08-26T14:23:27.796Z,3.50
2022-08-26T14:26:08.517Z,4.00
2022-08-26T14:28:40.146Z,4.20
2022-08-26T14:31:09.150Z,3.60
2022-08-26T14:33:38.273Z,3.40
2022-08-26T14:36:26.714Z,3.00
2022-08-26T14:38:58.484Z,3.50
2022-08-26T14:41:33.751Z,3.80
2022-08-26T14:44:21.793Z,3.50
2022-08-26T14:47:01.064Z,4.80
2022-08-26T14:49:31.598Z,4.20
2022-08-26T14:52:03.382Z,4.00
2022-08-26T14:54:34.791Z,4.20
2022-08-26T14:57:19.852Z,4.20
2022-08-26T14:59:56.096Z,4.40
2022-08-26T15:02:33.405Z,3.90
2022-08-26T15:05:06.793Z,4.70
2022-08-26T15:07:39.032Z,4.40
2022-08-26T15:10:14.657Z,4.10
2022-08-26T15:12:43.386Z,5.30
2022-08-26T15:15:17.625Z,6.60
2022-08-26T15:17:45.900Z,3.90
2022-08-26T15:20:14.331Z,4.50
2022-08-26T15:22:43.370Z,3.80
2022-08-26T15:25:11.667Z,5.40
2022-08-26T15:27:40.606Z,3.60
2022-08-26T15:30:11.793Z,3.40
2022-08-26T15:32:39.681Z,5.60
2022-08-26T15:35:09.216Z,3.60
2022-08-26T15:37:39.123Z,3.20
2022-08-26T15:40:10.040Z,3.40
2022-08-26T15:42:38.106Z,3.20
2022-08-26T15:45:06.506Z,3.40
2022-08-26T15:47:55.287Z,3.40
2022-08-26T15:50:22.930Z,3.30
2022-08-26T15:52:51.556Z,3.50
2022-08-26T15:55:19.510Z,3.70
2022-08-26T15:57:51.465Z,3.50
2022-08-26T16:00:20.869Z,3.60
2022-08-26T16:02:48.734Z,3.40
2022-08-26T16:05:17.533Z,3.90
2022-08-26T16:07:45.424Z,3.70
2022-08-26T16:10:21.067Z,7.20
2022-08-26T16:12:49.548Z,4.20
2022-08-26T16:15:17.432Z,3.60
2022-08-26T16:17:45.287Z,11.00
2022-08-26T16:20:13.426Z,4.10
2022-08-26T16:22:41.357Z,4.20
2022-08-26T16:25:09.634Z,3.60
2022-08-26T16:27:37.755Z,4.10
2022-08-26T16:30:10.381Z,4.20
2022-08-26T16:36:30.255Z,4.40
2022-08-26T16:38:58.299Z,3.70
2022-08-26T16:41:32.214Z,4.20
2022-08-26T16:44:08.365Z,4.20
2022-08-26T16:46:36.581Z,4.70
2022-08-26T16:49:14.032Z,5.40
2022-08-26T16:51:45.113Z,5.70
2022-08-26T16:54:15.515Z,5.70
2022-08-26T16:56:47.643Z,6.20
2022-08-26T16:59:15.804Z,6.10
2022-08-26T17:01:44.071Z,6.30
2022-08-26T17:04:11.832Z,6.50
2022-08-26T17:06:41.559Z,6.10
2022-08-26T17:09:09.611Z,6.50
2022-08-26T17:11:40.656Z,6.20
2022-08-26T17:14:09.002Z,6.50
2022-08-26T17:16:39.806Z,6.30
2022-08-26T17:19:08.350Z,6.50
2022-08-26T17:21:37.070Z,6.30
2022-08-26T17:24:07.056Z,6.10
2022-08-26T17:26:37.378Z,6.20
2022-08-26T17:29:07.774Z,6.20
2022-08-26T17:31:35.666Z,6.40
2022-08-26T17:34:04.741Z,6.80
2022-08-26T17:36:32.945Z,6.60
2022-08-26T17:39:00.942Z,7.10
2022-08-26T17:41:29.090Z,6.90
2022-08-26T17:43:57.335Z,6.60
2022-08-26T17:46:39.762Z,6.90
2022-08-26T17:49:12.632Z,6.50
2022-08-26T17:51:43.499Z,6.80
2022-08-26T17:54:11.406Z,6.80
2022-08-26T17:56:39.256Z,6.00
2022-08-26T17:59:07.208Z,6.30
2022-08-26T18:01:35.419Z,6.80
2022-08-26T18:04:06.571Z,6.50
2022-08-26T18:06:34.790Z,6.60
2022-08-26T18:09:04.384Z,6.30
2022-08-26T18:11:34.210Z,6.90
2022-08-26T18:14:02.363Z,6.60
2022-08-26T18:16:35.511Z,6.60
2022-08-26T18:19:08.758Z,6.70
2022-08-26T18:21:36.812Z,6.30
2022-08-26T18:24:14.032Z,6.80
2022-08-26T18:26:49.744Z,5.80
2022-08-26T18:29:23.499Z,6.70
2022-08-26T18:31:52.569Z,6.60
2022-08-26T18:34:23.586Z,7.40
2022-08-26T18:37:01.753Z,7.20
2022-08-26T18:39:40.017Z,7.30
2022-08-26T18:42:11.375Z,6.90
2022-08-26T18:44:39.344Z,7.50
2022-08-26T18:47:10.125Z,7.50
2022-08-26T18:49:38.152Z,7.40
2022-08-26T18:52:06.922Z,7.20
2022-08-26T18:54:36.008Z,7.10
2022-08-26T18:57:04.960Z,7.80
2022-08-26T18:59:35.138Z,7.90
2022-08-26T19:02:03.383Z,8.10
2022-08-26T19:04:31.588Z,7.00
2022-08-26T19:06:59.763Z,7.30
2022-08-26T19:09:29.531Z,6.70
2022-08-26T19:11:59.235Z,7.10
2022-08-26T19:14:29.379Z,7.30
2022-08-26T19:16:57.593Z,7.80
2022-08-26T19:19:25.648Z,7.20
2022-08-26T19:21:54.735Z,6.90
2022-08-26T19:24:27.327Z,7.20
2022-08-26T19:27:02.244Z,6.90
2022-08-26T19:29:41.171Z,7.40
2022-08-26T19:32:09.054Z,7.50
2022-08-26T19:34:39.501Z,7.90
2022-08-26T19:37:08.711Z,7.60
2022-08-26T19:39:39.481Z,7.70
2022-08-26T19:42:07.819Z,8.10
2022-08-26T19:44:54.637Z,8.20
2022-08-26T19:47:22.745Z,9.40
2022-08-26T19:49:57.186Z,7.80
2022-08-26T19:52:30.029Z,8.90
2022-08-26T19:55:08.660Z,8.00
2022-08-26T19:57:41.535Z,7.80
2022-08-26T20:00:16.149Z,8.50
2022-08-26T20:02:44.881Z,8.20
2022-08-26T20:05:16.391Z,8.10
2022-08-26T20:07:44.952Z,8.00
2022-08-26T20:10:15.531Z,8.40
2022-08-26T20:12:53.901Z,8.40
2022-08-26T20:15:28.522Z,7.70
2022-08-26T20:17:57.973Z,8.40
2022-08-26T20:20:58.610Z,8.50
2022-08-26T20:23:29.600Z,9.10
2022-08-26T20:28:48.473Z,8.10
2022-08-26T20:31:20.233Z,7.80
2022-08-26T20:33:48.935Z,8.30
2022-08-26T20:36:18.497Z,8.40
2022-08-26T20:38:47.672Z,8.40
2022-08-26T20:41:16.753Z,8.10
2022-08-26T20:44:06.286Z,8.60
2022-08-26T20:46:35.329Z,7.90
2022-08-26T20:49:05.999Z,8.20
2022-08-26T20:51:38.098Z,7.70
2022-08-26T20:54:07.956Z,7.90
2022-08-26T20:56:37.525Z,7.40
2022-08-26T20:59:08.036Z,7.50
2022-08-26T21:01:41.983Z,7.10
2022-08-26T21:04:17.419Z,7.20
2022-08-26T21:06:52.435Z,7.00
2022-08-26T21:09:25.868Z,8.30
2022-08-26T21:11:55.283Z,7.30
2022-08-26T21:14:25.990Z,7.50
2022-08-26T21:16:54.745Z,7.10
2022-08-26T21:19:22.875Z,7.90
2022-08-26T21:21:53.682Z,7.20
2022-08-26T21:24:22.294Z,6.50
2022-08-26T21:26:50.612Z,6.60
2022-08-26T21:29:18.925Z,7.40
2022-08-26T21:31:47.169Z,6.70
2022-08-26T21:34:18.604Z,6.00
2022-08-26T21:36:48.473Z,6.00
2022-08-26T21:39:17.529Z,6.70
2022-08-26T21:41:47.737Z,7.00
2022-08-26T21:44:18.168Z,6.20
2022-08-26T21:46:47.081Z,6.40
2022-08-26T21:49:16.216Z,6.30
2022-08-26T21:51:48.580Z,5.90
2022-08-26T21:54:18.166Z,6.10
2022-08-26T21:56:47.326Z,6.00
2022-08-26T21:59:18.938Z,5.70
2022-08-26T22:01:47.424Z,5.90
2022-08-26T22:04:16.505Z,6.30
2022-08-26T22:06:57.792Z,5.20
2022-08-26T22:09:28.955Z,5.90
2022-08-26T22:11:57.786Z,5.50
2022-08-26T22:14:30.915Z,5.50
2022-08-26T22:17:00.078Z,5.60
2022-08-26T22:19:31.881Z,5.50
2022-08-26T22:22:03.768Z,5.60
2022-08-26T22:24:31.723Z,5.60
2022-08-26T22:26:59.545Z,5.20
2022-08-26T22:29:27.341Z,5.50
2022-08-26T22:31:55.117Z,5.50
2022-08-26T22:34:23.460Z,5.50
2022-08-26T22:36:51.712Z,5.10
2022-08-26T22:39:28.457Z,5.00
2022-08-26T22:41:58.131Z,5.00
2022-08-26T22:44:26.706Z,5.30
2022-08-26T22:46:54.520Z,5.10
2022-08-26T22:49:23.818Z,5.20
2022-08-26T22:51:51.839Z,5.40
2022-08-26T22:54:19.762Z,5.00
2022-08-26T22:56:50.812Z,5.10
2022-08-26T22:59:19.121Z,5.70
2022-08-26T23:01:47.559Z,5.10
2022-08-26T23:04:15.682Z,5.60
2022-08-26T23:06:47.578Z,4.80
2022-08-26T23:09:18.834Z,5.00
2022-08-26T23:11:48.848Z,5.60
2022-08-26T23:14:18.883Z,5.70
2022-08-26T23:16:47.891Z,5.80
2022-08-26T23:19:19.908Z,5.50
2022-08-26T23:21:49.642Z,5.20
2022-08-26T23:24:18.475Z,5.30
2022-08-26T23:26:47.125Z,5.20
2022-08-26T23:29:16.473Z,5.30
2022-08-26T23:31:44.901Z,5.50
2022-08-26T23:34:32.358Z,5.10
2022-08-26T23:37:02.122Z,5.30
2022-08-26T23:39:35.494Z,5.10
2022-08-26T23:42:06.123Z,5.00
2022-08-26T23:44:35.114Z,5.70
2022-08-26T23:47:03.441Z,5.80
2022-08-26T23:49:32.150Z,5.90
2022-08-26T23:52:19.338Z,6.30
2022-08-26T23:54:48.790Z,5.00
2022-08-26T23:57:19.403Z,5.20
2022-08-26T23:59:48.781Z,5.40
